sensor_id;sensor_type;location;lat;lon;timestamp;P1;durP1;ratioP1;P2;durP2;ratioP2
39266;SDS011;24967;51.154;13.812;2024-03-23T03:05:03;30.02;;;17.50;;
39266;SDS011;24967;51.154;13.812;2024-03-23T03:07:33;31.92;;;18.58;;
39266;SDS011;24967;51.154;13.812;2024-03-23T03:10:06;46.10;;;23.00;;
39266;SDS011;24967;51.154;13.812;2024-03-23T03:12:35;41.30;;;21.38;;
39266;SDS011;24967;51.154;13.812;2024-03-23T03:15:03;46.00;;;22.60;;
39266;SDS011;24967;51.154;13.812;2024-03-23T03:17:29;45.90;;;23.73;;
39266;SDS011;24967;51.154;13.812;2024-03-23T03:19:56;47.05;;;24.05;;
39266;SDS011;24967;51.154;13.812;2024-03-23T03:22:32;45.55;;;23.48;;
39266;SDS011;24967;51.154;13.812;2024-03-23T03:25:06;39.30;;;21.75;;
39266;SDS011;24967;51.154;13.812;2024-03-23T03:27:34;47.58;;;23.10;;
39266;SDS011;24967;51.154;13.812;2024-03-23T03:30:04;43.92;;;21.50;;
39266;SDS011;24967;51.154;13.812;2024-03-23T03:32:31;43.20;;;21.95;;
39266;SDS011;24967;51.154;13.812;2024-03-23T03:34:58;37.70;;;20.08;;
39266;SDS011;24967;51.154;13.812;2024-03-23T03:37:25;45.92;;;23.40;;
39266;SDS011;24967;51.154;13.812;2024-03-23T03:39:51;42.95;;;22.48;;
39266;SDS011;24967;51.154;13.812;2024-03-23T03:42:17;44.17;;;22.83;;
39266;SDS011;24967;51.154;13.812;2024-03-23T03:44:51;40.03;;;20.98;;
39266;SDS011;24967;51.154;13.812;2024-03-23T03:47:18;39.58;;;20.17;;
39266;SDS011;24967;51.154;13.812;2024-03-23T03:49:47;37.75;;;20.60;;
39266;SDS011;24967;51.154;13.812;2024-03-23T03:52:14;39.67;;;20.83;;
39266;SDS011;24967;51.154;13.812;2024-03-23T03:54:47;37.35;;;20.15;;
39266;SDS011;24967;51.154;13.812;2024-03-23T03:57:12;39.97;;;19.38;;
39266;SDS011;24967;51.154;13.812;2024-03-23T03:59:42;38.35;;;20.08;;
39266;SDS011;24967;51.154;13.812;2024-03-23T04:02:17;32.35;;;19.27;;
39266;SDS011;24967;51.154;13.812;2024-03-23T04:04:49;41.92;;;21.15;;
39266;SDS011;24967;51.154;13.812;2024-03-23T04:07:16;39.55;;;20.77;;
39266;SDS011;24967;51.154;13.812;2024-03-23T04:09:43;39.08;;;19.08;;
39266;SDS011;24967;51.154;13.812;2024-03-23T04:12:10;31.15;;;17.50;;
39266;SDS011;24967;51.154;13.812;2024-03-23T04:14:36;33.42;;;19.58;;
39266;SDS011;24967;51.154;13.812;2024-03-23T04:17:02;36.22;;;18.65;;
39266;SDS011;24967;51.154;13.812;2024-03-23T04:19:29;33.58;;;19.27;;
39266;SDS011;24967;51.154;13.812;2024-03-23T04:21:54;34.97;;;19.63;;
39266;SDS011;24967;51.154;13.812;2024-03-23T04:24:20;34.45;;;19.50;;
39266;SDS011;24967;51.154;13.812;2024-03-23T04:26:47;40.28;;;20.48;;
39266;SDS011;24967;51.154;13.812;2024-03-23T04:29:15;38.50;;;20.80;;
39266;SDS011;24967;51.154;13.812;2024-03-23T04:31:40;41.10;;;21.77;;
39266;SDS011;24967;51.154;13.812;2024-03-23T04:34:08;39.47;;;20.55;;
39266;SDS011;24967;51.154;13.812;2024-03-23T04:36:35;44.30;;;20.80;;
39266;SDS011;24967;51.154;13.812;2024-03-23T04:39:02;38.83;;;20.88;;
39266;SDS011;24967;51.154;13.812;2024-03-23T04:41:31;38.85;;;21.45;;
39266;SDS011;24967;51.154;13.812;2024-03-23T04:43:57;37.00;;;21.15;;
39266;SDS011;24967;51.154;13.812;2024-03-23T04:46:27;38.72;;;21.20;;
39266;SDS011;24967;51.154;13.812;2024-03-23T04:49:07;36.97;;;20.85;;
39266;SDS011;24967;51.154;13.812;2024-03-23T04:51:36;37.00;;;21.40;;
39266;SDS011;24967;51.154;13.812;2024-03-23T04:54:02;39.00;;;20.20;;
39266;SDS011;24967;51.154;13.812;2024-03-23T04:56:30;37.88;;;20.60;;
39266;SDS011;24967;51.154;13.812;2024-03-23T04:59:04;38.15;;;20.95;;
39266;SDS011;24967;51.154;13.812;2024-03-23T05:01:32;38.85;;;20.02;;
39266;SDS011;24967;51.154;13.812;2024-03-23T05:04:07;29.95;;;16.92;;
39266;SDS011;24967;51.154;13.812;2024-03-23T05:06:33;31.50;;;16.67;;
39266;SDS011;24967;51.154;13.812;2024-03-23T05:09:00;27.45;;;15.43;;
39266;SDS011;24967;51.154;13.812;2024-03-23T05:11:31;25.63;;;16.00;;
39266;SDS011;24967;51.154;13.812;2024-03-23T05:13:57;25.90;;;16.10;;
39266;SDS011;24967;51.154;13.812;2024-03-23T05:16:29;33.92;;;18.38;;
39266;SDS011;24967;51.154;13.812;2024-03-23T05:19:05;31.70;;;17.50;;
39266;SDS011;24967;51.154;13.812;2024-03-23T05:21:35;34.05;;;19.38;;
39266;SDS011;24967;51.154;13.812;2024-03-23T05:24:01;32.33;;;16.83;;
39266;SDS011;24967;51.154;13.812;2024-03-23T05:26:28;31.83;;;17.15;;
39266;SDS011;24967;51.154;13.812;2024-03-23T05:28:54;32.20;;;18.25;;
39266;SDS011;24967;51.154;13.812;2024-03-23T05:31:23;31.40;;;16.67;;
39266;SDS011;24967;51.154;13.812;2024-03-23T05:33:50;38.03;;;18.77;;
39266;SDS011;24967;51.154;13.812;2024-03-23T05:36:19;36.70;;;19.42;;
39266;SDS011;24967;51.154;13.812;2024-03-23T05:38:50;35.60;;;19.65;;
39266;SDS011;24967;51.154;13.812;2024-03-23T05:41:15;37.42;;;18.75;;
39266;SDS011;24967;51.154;13.812;2024-03-23T05:43:43;37.55;;;19.27;;
39266;SDS011;24967;51.154;13.812;2024-03-23T05:46:11;38.80;;;19.90;;
39266;SDS011;24967;51.154;13.812;2024-03-23T05:48:38;39.13;;;20.15;;
39266;SDS011;24967;51.154;13.812;2024-03-23T05:51:10;40.25;;;20.17;;
39266;SDS011;24967;51.154;13.812;2024-03-23T05:53:39;42.08;;;21.23;;
39266;SDS011;24967;51.154;13.812;2024-03-23T05:56:07;42.67;;;22.60;;
39266;SDS011;24967;51.154;13.812;2024-03-23T05:58:34;45.20;;;23.17;;
39266;SDS011;24967;51.154;13.812;2024-03-23T06:01:00;40.60;;;21.50;;
39266;SDS011;24967;51.154;13.812;2024-03-23T06:03:31;43.85;;;22.33;;
39266;SDS011;24967;51.154;13.812;2024-03-23T06:05:56;40.10;;;21.92;;
39266;SDS011;24967;51.154;13.812;2024-03-23T06:08:23;43.42;;;21.52;;
39266;SDS011;24967;51.154;13.812;2024-03-23T06:11:04;38.53;;;21.17;;
39266;SDS011;24967;51.154;13.812;2024-03-23T06:13:31;39.63;;;21.67;;
39266;SDS011;24967;51.154;13.812;2024-03-23T06:15:57;38.45;;;20.58;;
39266;SDS011;24967;51.154;13.812;2024-03-23T06:18:25;37.03;;;20.92;;
39266;SDS011;24967;51.154;13.812;2024-03-23T06:20:54;36.38;;;21.13;;
39266;SDS011;24967;51.154;13.812;2024-03-23T06:23:26;40.72;;;21.60;;
39266;SDS011;24967;51.154;13.812;2024-03-23T06:26:05;41.00;;;21.95;;
39266;SDS011;24967;51.154;13.812;2024-03-23T06:28:33;39.30;;;21.38;;
39266;SDS011;24967;51.154;13.812;2024-03-23T06:31:06;35.42;;;18.95;;
39266;SDS011;24967;51.154;13.812;2024-03-23T06:33:37;37.15;;;19.55;;
39266;SDS011;24967;51.154;13.812;2024-03-23T06:36:04;38.35;;;21.15;;
39266;SDS011;24967;51.154;13.812;2024-03-23T06:38:37;37.63;;;20.30;;
39266;SDS011;24967;51.154;13.812;2024-03-23T06:41:08;38.60;;;20.92;;
39266;SDS011;24967;51.154;13.812;2024-03-23T06:43:36;35.47;;;19.90;;
39266;SDS011;24967;51.154;13.812;2024-03-23T06:46:10;35.15;;;19.77;;
39266;SDS011;24967;51.154;13.812;2024-03-23T06:48:37;37.15;;;20.00;;
39266;SDS011;24967;51.154;13.812;2024-03-23T06:51:03;35.65;;;19.83;;
39266;SDS011;24967;51.154;13.812;2024-03-23T06:53:29;34.97;;;19.00;;
39266;SDS011;24967;51.154;13.812;2024-03-23T06:55:57;36.58;;;19.98;;
39266;SDS011;24967;51.154;13.812;2024-03-23T06:58:29;37.90;;;19.77;;
39266;SDS011;24967;51.154;13.812;2024-03-23T07:00:56;39.97;;;20.58;;
39266;SDS011;24967;51.154;13.812;2024-03-23T07:03:22;38.80;;;21.30;;
39266;SDS011;24967;51.154;13.812;2024-03-23T07:05:48;41.60;;;21.48;;
39266;SDS011;24967;51.154;13.812;2024-03-23T07:08:14;39.35;;;20.33;;
39266;SDS011;24967;51.154;13.812;2024-03-23T07:10:46;38.35;;;20.38;;
39266;SDS011;24967;51.154;13.812;2024-03-23T07:13:11;39.65;;;21.55;;
39266;SDS011;24967;51.154;13.812;2024-03-23T07:15:39;36.63;;;20.38;;
39266;SDS011;24967;51.154;13.812;2024-03-23T07:18:04;38.45;;;22.48;;
39266;SDS011;24967;51.154;13.812;2024-03-23T07:20:31;38.47;;;20.90;;
39266;SDS011;24967;51.154;13.812;2024-03-23T07:22:56;39.42;;;21.08;;
39266;SDS011;24967;51.154;13.812;2024-03-23T07:25:23;37.90;;;21.05;;
39266;SDS011;24967;51.154;13.812;2024-03-23T07:27:50;37.15;;;20.13;;
39266;SDS011;24967;51.154;13.812;2024-03-23T07:30:16;37.80;;;21.58;;
39266;SDS011;24967;51.154;13.812;2024-03-23T07:32:45;35.15;;;19.20;;
39266;SDS011;24967;51.154;13.812;2024-03-23T07:35:11;39.67;;;21.38;;
39266;SDS011;24967;51.154;13.812;2024-03-23T07:37:37;36.30;;;20.80;;
39266;SDS011;24967;51.154;13.812;2024-03-23T07:40:03;44.20;;;24.48;;
39266;SDS011;24967;51.154;13.812;2024-03-23T07:42:30;44.08;;;23.02;;
39266;SDS011;24967;51.154;13.812;2024-03-23T07:44:56;43.65;;;23.13;;
39266;SDS011;24967;51.154;13.812;2024-03-23T07:47:22;39.42;;;20.98;;
39266;SDS011;24967;51.154;13.812;2024-03-23T07:49:49;40.40;;;22.88;;
39266;SDS011;24967;51.154;13.812;2024-03-23T07:52:15;34.50;;;20.63;;
39266;SDS011;24967;51.154;13.812;2024-03-23T07:54:40;42.10;;;21.98;;
39266;SDS011;24967;51.154;13.812;2024-03-23T07:57:07;38.40;;;22.05;;
39266;SDS011;24967;51.154;13.812;2024-03-23T07:59:32;36.20;;;20.20;;
39266;SDS011;24967;51.154;13.812;2024-03-23T08:01:58;37.75;;;22.02;;
39266;SDS011;24967;51.154;13.812;2024-03-23T08:04:24;40.20;;;21.90;;
39266;SDS011;24967;51.154;13.812;2024-03-23T08:06:52;40.85;;;22.83;;
39266;SDS011;24967;51.154;13.812;2024-03-23T08:09:17;35.95;;;21.15;;
39266;SDS011;24967;51.154;13.812;2024-03-23T08:11:44;39.03;;;21.67;;
39266;SDS011;24967;51.154;13.812;2024-03-23T08:14:11;37.92;;;21.13;;
39266;SDS011;24967;51.154;13.812;2024-03-23T08:16:38;44.13;;;23.50;;
39266;SDS011;24967;51.154;13.812;2024-03-23T08:19:04;36.10;;;20.92;;
39266;SDS011;24967;51.154;13.812;2024-03-23T08:21:30;39.50;;;21.00;;
39266;SDS011;24967;51.154;13.812;2024-03-23T08:23:58;34.47;;;19.40;;
39266;SDS011;24967;51.154;13.812;2024-03-23T08:26:23;33.85;;;19.23;;
39266;SDS011;24967;51.154;13.812;2024-03-23T08:28:49;32.53;;;19.52;;
39266;SDS011;24967;51.154;13.812;2024-03-23T08:31:15;37.90;;;19.27;;
39266;SDS011;24967;51.154;13.812;2024-03-23T08:33:41;35.97;;;20.23;;
39266;SDS011;24967;51.154;13.812;2024-03-23T08:36:08;38.38;;;21.23;;
39266;SDS011;24967;51.154;13.812;2024-03-23T08:38:37;34.85;;;20.17;;
39266;SDS011;24967;51.154;13.812;2024-03-23T08:41:05;34.42;;;20.15;;
39266;SDS011;24967;51.154;13.812;2024-03-23T08:43:32;31.27;;;19.23;;
39266;SDS011;24967;51.154;13.812;2024-03-23T08:46:03;31.98;;;19.38;;
39266;SDS011;24967;51.154;13.812;2024-03-23T08:48:29;32.05;;;18.70;;
39266;SDS011;24967;51.154;13.812;2024-03-23T08:53:27;29.10;;;18.30;;
39266;SDS011;24967;51.154;13.812;2024-03-23T08:55:53;25.80;;;17.33;;
39266;SDS011;24967;51.154;13.812;2024-03-23T08:58:20;25.15;;;17.15;;
39266;SDS011;24967;51.154;13.812;2024-03-23T09:00:46;31.40;;;18.70;;
39266;SDS011;24967;51.154;13.812;2024-03-23T09:03:14;30.95;;;18.65;;
39266;SDS011;24967;51.154;13.812;2024-03-23T09:05:39;32.10;;;20.05;;
39266;SDS011;24967;51.154;13.812;2024-03-23T09:08:06;29.58;;;18.55;;
39266;SDS011;24967;51.154;13.812;2024-03-23T09:10:34;32.75;;;18.00;;
39266;SDS011;24967;51.154;13.812;2024-03-23T09:13:04;27.95;;;17.13;;
39266;SDS011;24967;51.154;13.812;2024-03-23T09:15:31;31.20;;;18.75;;
39266;SDS011;24967;51.154;13.812;2024-03-23T09:17:58;29.33;;;17.13;;
39266;SDS011;24967;51.154;13.812;2024-03-23T09:20:24;22.83;;;14.70;;
39266;SDS011;24967;51.154;13.812;2024-03-23T09:22:50;19.65;;;12.77;;
39266;SDS011;24967;51.154;13.812;2024-03-23T09:25:15;16.85;;;11.60;;
39266;SDS011;24967;51.154;13.812;2024-03-23T09:27:42;20.73;;;12.35;;
39266;SDS011;24967;51.154;13.812;2024-03-23T09:30:07;18.70;;;13.30;;
39266;SDS011;24967;51.154;13.812;2024-03-23T09:32:36;21.38;;;13.38;;
39266;SDS011;24967;51.154;13.812;2024-03-23T09:35:01;21.40;;;13.52;;
39266;SDS011;24967;51.154;13.812;2024-03-23T09:37:28;20.55;;;13.38;;
39266;SDS011;24967;51.154;13.812;2024-03-23T09:39:53;23.42;;;13.13;;
39266;SDS011;24967;51.154;13.812;2024-03-23T09:42:20;20.13;;;13.27;;
39266;SDS011;24967;51.154;13.812;2024-03-23T09:44:45;19.08;;;11.77;;
39266;SDS011;24967;51.154;13.812;2024-03-23T09:47:12;18.60;;;12.13;;
39266;SDS011;24967;51.154;13.812;2024-03-23T09:49:38;19.58;;;10.63;;
39266;SDS011;24967;51.154;13.812;2024-03-23T09:52:05;13.70;;;8.13;;
39266;SDS011;24967;51.154;13.812;2024-03-23T09:54:31;10.27;;;6.47;;
39266;SDS011;24967;51.154;13.812;2024-03-23T09:56:58;5.03;;;3.28;;
39266;SDS011;24967;51.154;13.812;2024-03-23T09:59:23;6.75;;;3.22;;
39266;SDS011;24967;51.154;13.812;2024-03-23T10:01:51;5.55;;;2.72;;
39266;SDS011;24967;51.154;13.812;2024-03-23T10:07:10;3.33;;;3.03;;
39266;SDS011;24967;51.154;13.812;2024-03-23T10:09:36;10.68;;;9.18;;
39266;SDS011;24967;51.154;13.812;2024-03-23T10:12:07;5.10;;;3.00;;
39266;SDS011;24967;51.154;13.812;2024-03-23T10:14:34;5.57;;;2.65;;
39266;SDS011;24967;51.154;13.812;2024-03-23T10:17:11;2.97;;;1.88;;
39266;SDS011;24967;51.154;13.812;2024-03-23T10:19:38;1.05;;;0.85;;
39266;SDS011;24967;51.154;13.812;2024-03-23T10:22:05;1.33;;;1.30;;
39266;SDS011;24967;51.154;13.812;2024-03-23T10:24:32;0.65;;;0.65;;
39266;SDS011;24967;51.154;13.812;2024-03-23T10:26:59;1.27;;;0.90;;
39266;SDS011;24967;51.154;13.812;2024-03-23T10:29:25;3.40;;;1.60;;
39266;SDS011;24967;51.154;13.812;2024-03-23T10:31:52;4.75;;;2.05;;
39266;SDS011;24967;51.154;13.812;2024-03-23T10:34:21;1.23;;;0.80;;
39266;SDS011;24967;51.154;13.812;2024-03-23T10:36:52;0.50;;;0.50;;
39266;SDS011;24967;51.154;13.812;2024-03-23T10:39:18;0.60;;;0.60;;
39266;SDS011;24967;51.154;13.812;2024-03-23T10:41:48;1.85;;;0.50;;
39266;SDS011;24967;51.154;13.812;2024-03-23T10:44:14;1.08;;;0.88;;
39266;SDS011;24967;51.154;13.812;2024-03-23T10:46:43;1.45;;;0.63;;
39266;SDS011;24967;51.154;13.812;2024-03-23T10:49:08;1.45;;;0.70;;
39266;SDS011;24967;51.154;13.812;2024-03-23T10:51:34;0.57;;;0.57;;
39266;SDS011;24967;51.154;13.812;2024-03-23T10:54:00;1.05;;;1.05;;
39266;SDS011;24967;51.154;13.812;2024-03-23T10:56:31;1.27;;;0.93;;
39266;SDS011;24967;51.154;13.812;2024-03-23T10:59:01;0.80;;;0.80;;
39266;SDS011;24967;51.154;13.812;2024-03-23T11:01:32;0.40;;;0.40;;
39266;SDS011;24967;51.154;13.812;2024-03-23T11:03:57;1.23;;;0.88;;
39266;SDS011;24967;51.154;13.812;2024-03-23T11:06:34;2.10;;;2.00;;
39266;SDS011;24967;51.154;13.812;2024-03-23T11:09:00;1.15;;;1.15;;
39266;SDS011;24967;51.154;13.812;2024-03-23T11:11:26;1.70;;;1.60;;
39266;SDS011;24967;51.154;13.812;2024-03-23T11:13:53;0.77;;;0.77;;
39266;SDS011;24967;51.154;13.812;2024-03-23T11:16:23;0.80;;;0.80;;
39266;SDS011;24967;51.154;13.812;2024-03-23T11:18:49;1.20;;;1.02;;
39266;SDS011;24967;51.154;13.812;2024-03-23T11:24:18;1.55;;;0.82;;
39266;SDS011;24967;51.154;13.812;2024-03-23T11:26:45;1.85;;;0.52;;
39266;SDS011;24967;51.154;13.812;2024-03-23T11:29:12;0.75;;;0.75;;
39266;SDS011;24967;51.154;13.812;2024-03-23T11:31:46;1.95;;;1.85;;
39266;SDS011;24967;51.154;13.812;2024-03-23T11:34:12;3.38;;;3.17;;
39266;SDS011;24967;51.154;13.812;2024-03-23T11:36:39;2.22;;;2.13;;
39266;SDS011;24967;51.154;13.812;2024-03-23T11:39:11;0.73;;;0.73;;
39266;SDS011;24967;51.154;13.812;2024-03-23T11:41:45;2.08;;;1.70;;
39266;SDS011;24967;51.154;13.812;2024-03-23T11:44:17;1.80;;;1.70;;
39266;SDS011;24967;51.154;13.812;2024-03-23T11:46:43;0.73;;;0.73;;
39266;SDS011;24967;51.154;13.812;2024-03-23T11:49:20;1.20;;;1.20;;
39266;SDS011;24967;51.154;13.812;2024-03-23T11:51:50;0.70;;;0.70;;
39266;SDS011;24967;51.154;13.812;2024-03-23T11:54:16;1.25;;;1.25;;
39266;SDS011;24967;51.154;13.812;2024-03-23T11:56:56;1.30;;;1.10;;
39266;SDS011;24967;51.154;13.812;2024-03-23T11:59:35;0.77;;;0.77;;
39266;SDS011;24967;51.154;13.812;2024-03-23T12:02:05;1.23;;;1.23;;
39266;SDS011;24967;51.154;13.812;2024-03-23T12:04:33;2.40;;;0.52;;
39266;SDS011;24967;51.154;13.812;2024-03-23T12:07:10;0.75;;;0.75;;
39266;SDS011;24967;51.154;13.812;2024-03-23T12:09:39;2.75;;;2.58;;
39266;SDS011;24967;51.154;13.812;2024-03-23T12:12:10;1.45;;;1.30;;
39266;SDS011;24967;51.154;13.812;2024-03-23T12:14:43;1.20;;;1.20;;
39266;SDS011;24967;51.154;13.812;2024-03-23T12:17:10;1.40;;;1.40;;
39266;SDS011;24967;51.154;13.812;2024-03-23T12:19:41;0.70;;;0.70;;
39266;SDS011;24967;51.154;13.812;2024-03-23T12:22:11;0.70;;;0.70;;
39266;SDS011;24967;51.154;13.812;2024-03-23T12:24:37;1.60;;;1.50;;
39266;SDS011;24967;51.154;13.812;2024-03-23T12:27:11;0.80;;;0.80;;
39266;SDS011;24967;51.154;13.812;2024-03-23T12:29:37;1.10;;;1.10;;
39266;SDS011;24967;51.154;13.812;2024-03-23T12:32:06;1.50;;;1.50;;
39266;SDS011;24967;51.154;13.812;2024-03-23T12:34:32;1.70;;;1.02;;
39266;SDS011;24967;51.154;13.812;2024-03-23T12:37:00;1.05;;;1.05;;
39266;SDS011;24967;51.154;13.812;2024-03-23T12:39:25;3.10;;;1.60;;
39266;SDS011;24967;51.154;13.812;2024-03-23T12:41:52;2.33;;;2.22;;
39266;SDS011;24967;51.154;13.812;2024-03-23T12:44:18;2.22;;;2.13;;
39266;SDS011;24967;51.154;13.812;2024-03-23T12:46:46;55.50;;;44.08;;
39266;SDS011;24967;51.154;13.812;2024-03-23T12:49:12;128.82;;;87.35;;
39266;SDS011;24967;51.154;13.812;2024-03-23T12:51:38;16.30;;;14.43;;
39266;SDS011;24967;51.154;13.812;2024-03-23T12:54:10;3.90;;;3.67;;
39266;SDS011;24967;51.154;13.812;2024-03-23T12:56:43;2.20;;;2.10;;
39266;SDS011;24967;51.154;13.812;2024-03-23T12:59:09;3.05;;;2.85;;
39266;SDS011;24967;51.154;13.812;2024-03-23T13:01:36;1.65;;;1.55;;
39266;SDS011;24967;51.154;13.812;2024-03-23T13:04:01;2.30;;;1.70;;
39266;SDS011;24967;51.154;13.812;2024-03-23T13:06:28;1.48;;;1.40;;
39266;SDS011;24967;51.154;13.812;2024-03-23T13:08:57;3.30;;;1.90;;
39266;SDS011;24967;51.154;13.812;2024-03-23T13:11:24;1.52;;;1.10;;
39266;SDS011;24967;51.154;13.812;2024-03-23T13:13:51;1.00;;;1.00;;
39266;SDS011;24967;51.154;13.812;2024-03-23T13:16:17;2.38;;;1.02;;
39266;SDS011;24967;51.154;13.812;2024-03-23T13:18:43;1.08;;;0.90;;
39266;SDS011;24967;51.154;13.812;2024-03-23T13:21:09;1.30;;;1.30;;
39266;SDS011;24967;51.154;13.812;2024-03-23T13:23:34;2.50;;;2.30;;
39266;SDS011;24967;51.154;13.812;2024-03-23T13:26:03;4.03;;;2.90;;
39266;SDS011;24967;51.154;13.812;2024-03-23T13:28:30;4.07;;;1.83;;
39266;SDS011;24967;51.154;13.812;2024-03-23T13:30:56;1.75;;;1.60;;
39266;SDS011;24967;51.154;13.812;2024-03-23T13:33:22;1.60;;;1.50;;
39266;SDS011;24967;51.154;13.812;2024-03-23T13:35:49;1.45;;;1.30;;
39266;SDS011;24967;51.154;13.812;2024-03-23T13:38:15;1.63;;;1.50;;
39266;SDS011;24967;51.154;13.812;2024-03-23T13:40:48;2.63;;;1.65;;
39266;SDS011;24967;51.154;13.812;2024-03-23T13:43:14;1.88;;;1.42;;
39266;SDS011;24967;51.154;13.812;2024-03-23T13:45:42;3.55;;;1.50;;
39266;SDS011;24967;51.154;13.812;2024-03-23T13:48:08;1.95;;;1.38;;
39266;SDS011;24967;51.154;13.812;2024-03-23T13:50:34;3.95;;;2.15;;
39266;SDS011;24967;51.154;13.812;2024-03-23T13:52:59;2.90;;;2.20;;
39266;SDS011;24967;51.154;13.812;2024-03-23T13:55:26;3.67;;;3.38;;
39266;SDS011;24967;51.154;13.812;2024-03-23T13:57:51;3.20;;;1.98;;
39266;SDS011;24967;51.154;13.812;2024-03-23T14:00:18;9.40;;;2.45;;
39266;SDS011;24967;51.154;13.812;2024-03-23T14:02:45;3.13;;;2.92;;
39266;SDS011;24967;51.154;13.812;2024-03-23T14:05:11;3.90;;;2.72;;
39266;SDS011;24967;51.154;13.812;2024-03-23T14:07:36;3.40;;;1.77;;
39266;SDS011;24967;51.154;13.812;2024-03-23T14:10:03;4.07;;;2.65;;
39266;SDS011;24967;51.154;13.812;2024-03-23T14:12:29;2.67;;;1.98;;
39266;SDS011;24967;51.154;13.812;2024-03-23T14:14:56;2.60;;;2.47;;
39266;SDS011;24967;51.154;13.812;2024-03-23T14:17:21;3.47;;;2.10;;
39266;SDS011;24967;51.154;13.812;2024-03-23T14:19:49;2.85;;;2.30;;
39266;SDS011;24967;51.154;13.812;2024-03-23T14:22:15;2.55;;;2.10;;
39266;SDS011;24967;51.154;13.812;2024-03-23T14:24:44;2.10;;;2.00;;
39266;SDS011;24967;51.154;13.812;2024-03-23T14:27:09;4.18;;;1.80;;
39266;SDS011;24967;51.154;13.812;2024-03-23T14:29:36;4.15;;;1.50;;
39266;SDS011;24967;51.154;13.812;2024-03-23T14:32:01;2.65;;;1.67;;
39266;SDS011;24967;51.154;13.812;2024-03-23T14:34:27;4.78;;;2.33;;
39266;SDS011;24967;51.154;13.812;2024-03-23T14:36:54;3.25;;;2.17;;
39266;SDS011;24967;51.154;13.812;2024-03-23T14:39:22;6.53;;;3.40;;
39266;SDS011;24967;51.154;13.812;2024-03-23T14:41:47;8.05;;;2.70;;
39266;SDS011;24967;51.154;13.812;2024-03-23T14:44:14;4.38;;;2.42;;
39266;SDS011;24967;51.154;13.812;2024-03-23T14:46:39;7.13;;;1.70;;
39266;SDS011;24967;51.154;13.812;2024-03-23T14:49:05;4.60;;;1.67;;
39266;SDS011;24967;51.154;13.812;2024-03-23T14:51:31;6.30;;;2.33;;
39266;SDS011;24967;51.154;13.812;2024-03-23T14:53:59;4.40;;;1.35;;
39266;SDS011;24967;51.154;13.812;2024-03-23T14:56:25;5.80;;;2.10;;
39266;SDS011;24967;51.154;13.812;2024-03-23T14:58:52;7.72;;;2.63;;
39266;SDS011;24967;51.154;13.812;2024-03-23T15:01:20;2.80;;;1.27;;
39266;SDS011;24967;51.154;13.812;2024-03-23T15:03:46;7.18;;;1.50;;
39266;SDS011;24967;51.154;13.812;2024-03-23T15:06:12;4.18;;;1.40;;
39266;SDS011;24967;51.154;13.812;2024-03-23T15:08:38;3.17;;;1.30;;
39266;SDS011;24967;51.154;13.812;2024-03-23T15:11:06;5.68;;;1.70;;
39266;SDS011;24967;51.154;13.812;2024-03-23T15:13:32;3.38;;;1.98;;
39266;SDS011;24967;51.154;13.812;2024-03-23T15:15:59;2.83;;;1.70;;
39266;SDS011;24967;51.154;13.812;2024-03-23T15:18:24;3.53;;;1.90;;
39266;SDS011;24967;51.154;13.812;2024-03-23T15:20:52;5.93;;;1.85;;
39266;SDS011;24967;51.154;13.812;2024-03-23T15:23:18;6.22;;;1.73;;
39266;SDS011;24967;51.154;13.812;2024-03-23T15:25:44;6.68;;;2.42;;
39266;SDS011;24967;51.154;13.812;2024-03-23T15:28:11;2.78;;;1.65;;
39266;SDS011;24967;51.154;13.812;2024-03-23T15:30:38;3.15;;;1.70;;
39266;SDS011;24967;51.154;13.812;2024-03-23T15:33:04;5.68;;;2.60;;
39266;SDS011;24967;51.154;13.812;2024-03-23T15:35:30;5.05;;;3.40;;
39266;SDS011;24967;51.154;13.812;2024-03-23T15:37:57;6.75;;;2.55;;
39266;SDS011;24967;51.154;13.812;2024-03-23T15:40:23;4.80;;;3.05;;
39266;SDS011;24967;51.154;13.812;2024-03-23T15:42:48;6.80;;;2.83;;
39266;SDS011;24967;51.154;13.812;2024-03-23T15:45:16;4.03;;;1.88;;
39266;SDS011;24967;51.154;13.812;2024-03-23T15:47:42;3.15;;;2.10;;
39266;SDS011;24967;51.154;13.812;2024-03-23T15:50:08;2.92;;;2.13;;
39266;SDS011;24967;51.154;13.812;2024-03-23T15:52:34;5.68;;;2.40;;
39266;SDS011;24967;51.154;13.812;2024-03-23T15:55:01;7.95;;;2.70;;
39266;SDS011;24967;51.154;13.812;2024-03-23T15:57:30;6.00;;;2.05;;
39266;SDS011;24967;51.154;13.812;2024-03-23T15:59:57;3.63;;;2.00;;
39266;SDS011;24967;51.154;13.812;2024-03-23T16:02:23;5.15;;;2.42;;
39266;SDS011;24967;51.154;13.812;2024-03-23T16:04:50;7.40;;;2.90;;
39266;SDS011;24967;51.154;13.812;2024-03-23T16:07:15;9.13;;;3.40;;
39266;SDS011;24967;51.154;13.812;2024-03-23T16:09:42;6.28;;;4.03;;
39266;SDS011;24967;51.154;13.812;2024-03-23T16:12:07;9.23;;;4.80;;
39266;SDS011;24967;51.154;13.812;2024-03-23T16:14:33;10.90;;;5.28;;
39266;SDS011;24967;51.154;13.812;2024-03-23T16:16:59;7.75;;;5.93;;
39266;SDS011;24967;51.154;13.812;2024-03-23T16:19:26;11.18;;;6.28;;
39266;SDS011;24967;51.154;13.812;2024-03-23T16:21:52;12.65;;;7.65;;
39266;SDS011;24967;51.154;13.812;2024-03-23T16:24:19;13.27;;;8.60;;
39266;SDS011;24967;51.154;13.812;2024-03-23T16:26:44;11.73;;;8.20;;
39266;SDS011;24967;51.154;13.812;2024-03-23T16:29:10;15.10;;;7.07;;
39266;SDS011;24967;51.154;13.812;2024-03-23T16:31:36;12.05;;;7.38;;
39266;SDS011;24967;51.154;13.812;2024-03-23T16:34:02;13.55;;;6.47;;
39266;SDS011;24967;51.154;13.812;2024-03-23T16:36:29;11.65;;;6.18;;
39266;SDS011;24967;51.154;13.812;2024-03-23T16:38:55;11.98;;;6.15;;
39266;SDS011;24967;51.154;13.812;2024-03-23T16:41:21;10.32;;;4.97;;
39266;SDS011;24967;51.154;13.812;2024-03-23T16:43:47;6.82;;;4.55;;
39266;SDS011;24967;51.154;13.812;2024-03-23T16:46:13;12.07;;;5.13;;
39266;SDS011;24967;51.154;13.812;2024-03-23T16:48:40;13.43;;;4.70;;
39266;SDS011;24967;51.154;13.812;2024-03-23T16:51:07;11.25;;;4.65;;
39266;SDS011;24967;51.154;13.812;2024-03-23T16:53:35;8.75;;;5.03;;
39266;SDS011;24967;51.154;13.812;2024-03-23T16:56:02;10.38;;;5.78;;
39266;SDS011;24967;51.154;13.812;2024-03-23T16:58:30;14.73;;;7.15;;
39266;SDS011;24967;51.154;13.812;2024-03-23T17:00:56;15.95;;;6.07;;
39266;SDS011;24967;51.154;13.812;2024-03-23T17:03:23;14.90;;;6.50;;
39266;SDS011;24967;51.154;13.812;2024-03-23T17:05:48;8.85;;;5.40;;
39266;SDS011;24967;51.154;13.812;2024-03-23T17:08:15;6.95;;;4.30;;
39266;SDS011;24967;51.154;13.812;2024-03-23T17:10:42;4.78;;;4.15;;
39266;SDS011;24967;51.154;13.812;2024-03-23T17:13:09;8.98;;;4.40;;
39266;SDS011;24967;51.154;13.812;2024-03-23T17:15:41;8.10;;;4.60;;
39266;SDS011;24967;51.154;13.812;2024-03-23T17:18:08;5.88;;;4.00;;
39266;SDS011;24967;51.154;13.812;2024-03-23T17:20:34;11.55;;;5.85;;
39266;SDS011;24967;51.154;13.812;2024-03-23T17:23:00;14.90;;;6.82;;
39266;SDS011;24967;51.154;13.812;2024-03-23T17:25:26;15.60;;;8.55;;
39266;SDS011;24967;51.154;13.812;2024-03-23T17:27:54;8.18;;;4.85;;
39266;SDS011;24967;51.154;13.812;2024-03-23T17:30:19;7.53;;;4.18;;
39266;SDS011;24967;51.154;13.812;2024-03-23T17:32:46;7.00;;;4.47;;
39266;SDS011;24967;51.154;13.812;2024-03-23T17:35:11;10.48;;;4.68;;